Time;durP1;ratioP1;P1;durP2;ratioP2;P2;SDS_P1;SDS_P2;PMS_P1;PMS_P2;Temp;Humidity;BMP_temperature;BMP_pressure;BME280_temperature;BME280_humidity;BME280_pressure;Samples;Min_cycle;Max_cycle;Signal;HPM_P1;HPM_P2
2024/03/03 00:02:19;;;;;;;5.53;2.43;;;11.70;99.90;;;;;;4973420;28;20487;-53
2024/03/03 00:04:45;;;;;;;5.37;2.90;;;11.70;99.90;;;;;;4973584;28;20023;-55
2024/03/03 00:07:11;;;;;;;5.97;2.50;;;11.70;99.90;;;;;;4973613;28;20034;-53
2024/03/03 00:09:37;;;;;;;6.60;2.60;;;11.70;99.90;;;;;;4973453;28;20076;-53
2024/03/03 00:12:02;;;;;;;5.83;2.57;;;11.60;99.90;;;;;;4973540;28;20484;-51
2024/03/03 00:14:28;;;;;;;5.93;2.30;;;11.70;99.90;;;;;;4973462;28;20121;-52
2024/03/03 00:16:54;;;;;;;4.63;2.30;;;11.70;99.90;;;;;;4973533;28;20043;-51
2024/03/03 00:19:19;;;;;;;4.33;2.17;;;11.60;99.90;;;;;;4973299;28;20031;-50
2024/03/03 00:21:45;;;;;;;5.20;2.40;;;11.60;99.90;;;;;;4973278;28;20031;-50
2024/03/03 00:24:10;;;;;;;4.67;2.20;;;11.50;99.90;;;;;;4972197;28;20468;-50
2024/03/03 00:26:36;;;;;;;4.63;2.20;;;11.50;99.90;;;;;;4973398;28;20045;-51
2024/03/03 00:29:01;;;;;;;5.10;2.70;;;11.50;99.90;;;;;;4972032;28;20027;-50
2024/03/03 00:31:27;;;;;;;5.83;2.40;;;11.60;99.90;;;;;;4971909;28;20046;-51
2024/03/03 00:33:53;;;;;;;5.10;2.33;;;11.50;99.90;;;;;;4972271;28;20045;-48
2024/03/03 00:36:18;;;;;;;6.40;2.60;;;11.60;99.90;;;;;;4973125;28;20038;-52
2024/03/03 00:38:44;;;;;;;5.40;2.23;;;11.50;99.90;;;;;;4973312;28;20069;-51
2024/03/03 00:41:10;;;;;;;4.20;2.13;;;11.50;99.90;;;;;;4973688;28;20031;-50
2024/03/03 00:43:37;;;;;;;4.27;2.33;;;11.40;99.90;;;;;;4972572;28;20485;-50
2024/03/03 00:46:03;;;;;;;5.00;2.40;;;11.40;99.90;;;;;;4974417;28;20121;-51
2024/03/03 00:48:28;;;;;;;4.77;2.13;;;11.40;99.90;;;;;;4973730;28;20039;-54
2024/03/03 00:50:54;;;;;;;4.50;2.20;;;11.30;99.90;;;;;;4973581;28;20042;-54
2024/03/03 00:53:22;;;;;;;4.20;2.27;;;11.30;99.90;;;;;;4974161;28;20110;-54
2024/03/03 00:55:48;;;;;;;4.77;1.93;;;11.20;99.90;;;;;;4974750;28;20373;-54
2024/03/03 00:58:14;;;;;;;3.63;1.73;;;11.20;99.90;;;;;;4974514;28;20412;-53
2024/03/03 01:00:41;;;;;;;6.63;2.20;;;11.20;99.90;;;;;;4971512;28;20027;-53
2024/03/03 01:03:07;;;;;;;5.00;2.20;;;11.30;99.90;;;;;;4971569;28;20062;-54
2024/03/03 01:05:33;;;;;;;4.17;2.27;;;11.30;99.90;;;;;;4972886;28;20073;-53
2024/03/03 01:07:59;;;;;;;5.00;2.20;;;11.20;99.90;;;;;;4973009;28;20034;-50
2024/03/03 01:10:25;;;;;;;6.70;2.60;;;11.10;99.90;;;;;;4971505;28;20077;-52
2024/03/03 01:12:51;;;;;;;4.03;2.30;;;11.00;99.90;;;;;;4971374;28;20058;-55
2024/03/03 01:15:17;;;;;;;5.80;2.10;;;10.90;99.90;;;;;;4971410;28;20066;-53
2024/03/03 01:17:43;;;;;;;4.30;2.10;;;10.90;99.90;;;;;;4973086;28;20027;-51
2024/03/03 01:20:09;;;;;;;5.23;2.13;;;10.90;99.90;;;;;;4972662;28;20081;-53
2024/03/03 01:22:36;;;;;;;4.80;2.40;;;11.00;99.90;;;;;;4971361;28;20142;-52
2024/03/03 01:25:02;;;;;;;6.63;2.17;;;11.10;99.90;;;;;;4971427;28;20098;-56
2024/03/03 01:27:28;;;;;;;5.37;1.70;;;11.10;99.90;;;;;;4971503;28;20085;-54
2024/03/03 01:29:54;;;;;;;4.40;2.10;;;11.10;99.90;;;;;;4971194;28;20479;-50
2024/03/03 01:32:22;;;;;;;6.80;2.83;;;11.20;99.90;;;;;;4972568;28;20027;-53
2024/03/03 01:34:49;;;;;;;5.20;2.07;;;11.30;99.90;;;;;;4971315;28;20031;-54
2024/03/03 01:37:14;;;;;;;5.40;2.10;;;11.30;99.90;;;;;;4971595;28;20070;-55
2024/03/03 01:39:42;;;;;;;5.40;2.23;;;11.40;99.90;;;;;;4972443;28;20031;-53
2024/03/03 01:42:08;;;;;;;4.03;2.00;;;11.50;99.90;;;;;;4971202;28;20259;-55
2024/03/03 01:44:33;;;;;;;4.47;2.00;;;11.60;99.90;;;;;;4971139;28;20142;-53
2024/03/03 01:47:00;;;;;;;3.93;1.80;;;11.70;99.90;;;;;;4971132;28;20031;-54
2024/03/03 01:49:26;;;;;;;5.07;2.50;;;11.70;99.90;;;;;;4973752;28;20117;-50
2024/03/03 01:51:53;;;;;;;5.20;2.30;;;11.60;99.90;;;;;;4975902;28;20030;-54
2024/03/03 01:54:19;;;;;;;4.47;2.33;;;11.60;99.90;;;;;;4975989;28;20035;-53
2024/03/03 01:56:47;;;;;;;4.23;1.90;;;11.60;99.90;;;;;;4974735;28;20440;-55
2024/03/03 01:59:15;;;;;;;5.70;2.43;;;11.60;99.90;;;;;;4974841;28;20071;-52
2024/03/03 02:01:42;;;;;;;5.03;1.80;;;11.50;99.90;;;;;;4974702;28;20839;-52
2024/03/03 02:04:10;;;;;;;4.53;1.90;;;11.60;99.90;;;;;;4974536;28;20510;-55
2024/03/03 02:06:38;;;;;;;3.73;1.83;;;11.70;99.90;;;;;;4974540;28;20030;-55
2024/03/03 02:09:05;;;;;;;4.87;2.10;;;11.70;99.90;;;;;;4975874;28;20039;-55
2024/03/03 02:11:32;;;;;;;4.83;2.03;;;11.80;99.90;;;;;;4974247;28;20034;-55
2024/03/03 02:13:57;;;;;;;4.27;1.73;;;11.80;99.90;;;;;;4974366;28;20110;-52
2024/03/03 02:16:23;;;;;;;3.83;1.83;;;11.80;99.90;;;;;;4974359;28;20058;-52
2024/03/03 02:18:49;;;;;;;3.67;1.93;;;11.80;99.90;;;;;;4975518;28;20090;-56
2024/03/03 02:21:14;;;;;;;3.17;1.60;;;11.90;99.90;;;;;;4974264;28;20041;-56
2024/03/03 02:23:40;;;;;;;5.87;2.13;;;11.80;99.90;;;;;;4975583;28;20094;-55
2024/03/03 02:26:05;;;;;;;4.73;2.10;;;11.80;99.90;;;;;;4975431;28;20106;-55
2024/03/03 02:28:31;;;;;;;6.90;1.97;;;11.80;99.90;;;;;;4975457;28;20455;-54
2024/03/03 02:30:57;;;;;;;5.80;2.27;;;11.80;99.90;;;;;;4973885;28;20046;-55
2024/03/03 02:33:22;;;;;;;3.73;2.20;;;11.80;99.90;;;;;;4974109;28;20031;-52
2024/03/03 02:35:48;;;;;;;5.43;1.90;;;11.70;99.90;;;;;;4973991;28;20034;-54
2024/03/03 02:38:14;;;;;;;3.87;1.87;;;11.70;99.90;;;;;;4973955;28;20480;-56
2024/03/03 02:40:39;;;;;;;5.50;2.70;;;11.70;99.90;;;;;;4975058;28;20023;-56
2024/03/03 02:43:07;;;;;;;6.47;2.20;;;11.60;99.90;;;;;;4973850;28;20103;-56
2024/03/03 02:45:33;;;;;;;7.87;2.13;;;11.60;99.90;;;;;;4974922;28;20051;-54
2024/03/03 02:47:59;;;;;;;4.83;2.10;;;11.60;99.90;;;;;;4973854;28;20125;-52
2024/03/03 02:50:24;;;;;;;4.47;2.13;;;11.50;99.90;;;;;;4974975;28;20046;-54
2024/03/03 02:52:50;;;;;;;4.50;1.90;;;11.40;99.90;;;;;;4974787;28;20035;-55
2024/03/03 02:55:15;;;;;;;3.63;1.93;;;11.40;99.90;;;;;;4973600;28;20038;-53
2024/03/03 02:57:41;;;;;;;4.87;1.97;;;11.30;99.90;;;;;;4973768;28;20046;-53
2024/03/03 03:00:11;;;;;;;5.33;2.37;;;11.20;99.90;;;;;;4973786;28;20019;-55
2024/03/03 03:02:37;;;;;;;7.53;2.60;;;11.30;99.90;;;;;;4973426;28;20027;-53
2024/03/03 03:05:03;;;;;;;4.13;2.00;;;11.20;99.90;;;;;;4973409;28;20031;-52
2024/03/03 03:07:28;;;;;;;4.53;2.20;;;11.10;99.90;;;;;;4973456;28;20113;-51
2024/03/03 03:09:54;;;;;;;4.87;2.20;;;11.00;99.90;;;;;;4973271;28;20381;-51
2024/03/03 03:12:20;;;;;;;4.93;2.30;;;11.00;99.90;;;;;;4974566;28;20085;-50
2024/03/03 03:14:46;;;;;;;4.97;2.40;;;11.00;99.90;;;;;;4973214;28;20031;-50
2024/03/03 03:17:11;;;;;;;4.97;2.50;;;10.90;99.90;;;;;;4973354;28;20110;-52
2024/03/03 03:19:37;;;;;;;6.40;2.60;;;10.90;99.90;;;;;;4973304;28;20041;-52
2024/03/03 03:22:03;;;;;;;5.47;2.40;;;10.90;99.90;;;;;;4974304;28;20027;-50
2024/03/03 03:24:29;;;;;;;4.67;2.37;;;10.80;99.90;;;;;;4974286;28;20038;-51
2024/03/03 03:26:55;;;;;;;7.53;3.10;;;10.80;99.90;;;;;;4974379;28;20435;-51
2024/03/03 03:29:21;;;;;;;10.00;3.93;;;10.80;99.90;;;;;;4974241;28;20035;-51
2024/03/03 03:31:47;;;;;;;8.27;3.13;;;10.80;99.90;;;;;;4989154;28;20101;-51
2024/03/03 03:34:12;;;;;;;6.43;2.80;;;10.80;99.90;;;;;;4974177;28;20053;-55
2024/03/03 03:36:38;;;;;;;7.00;3.00;;;10.70;99.90;;;;;;4974231;28;20038;-53
2024/03/03 03:39:11;;;;;;;7.87;2.90;;;10.70;99.90;;;;;;4974029;28;20100;-51
2024/03/03 03:41:49;;;;;;;6.03;2.67;;;10.60;99.90;;;;;;4974161;28;20042;-55
2024/03/03 03:44:16;;;;;;;6.43;2.70;;;10.60;99.90;;;;;;4973919;28;20035;-53
2024/03/03 03:46:42;;;;;;;7.00;2.77;;;10.50;99.90;;;;;;4973894;28;20121;-52
2024/03/03 03:49:09;;;;;;;6.70;3.10;;;10.50;99.90;;;;;;4973917;28;20053;-50
2024/03/03 03:51:36;;;;;;;4.73;2.60;;;10.40;99.90;;;;;;4973668;28;20505;-56
2024/03/03 03:54:03;;;;;;;8.20;2.50;;;10.30;99.90;;;;;;4973845;28;20030;-56
2024/03/03 03:56:30;;;;;;;6.77;2.50;;;10.30;99.90;;;;;;4973832;28;20045;-56
2024/03/03 03:58:55;;;;;;;7.20;2.93;;;10.20;99.90;;;;;;4973607;28;20035;-56
2024/03/03 04:01:21;;;;;;;7.10;2.77;;;10.10;99.90;;;;;;4973577;28;20026;-56
2024/03/03 04:03:47;;;;;;;7.20;3.13;;;10.10;99.90;;;;;;4973744;28;20086;-56
2024/03/03 04:06:13;;;;;;;6.33;2.60;;;10.10;99.90;;;;;;4972321;28;20035;-55
2024/03/03 04:08:40;;;;;;;8.47;2.83;;;10.00;99.90;;;;;;4973621;28;20447;-55
2024/03/03 04:11:06;;;;;;;6.70;3.10;;;10.00;99.90;;;;;;4973464;28;20400;-53
2024/03/03 04:13:32;;;;;;;5.30;2.43;;;9.90;99.90;;;;;;4973679;28;20045;-54
2024/03/03 04:15:58;;;;;;;5.43;2.63;;;9.90;99.90;;;;;;4973321;28;20030;-53
2024/03/03 04:18:24;;;;;;;4.93;2.30;;;9.80;99.90;;;;;;4972254;28;20039;-53
2024/03/03 04:20:49;;;;;;;6.13;2.77;;;9.80;99.90;;;;;;4973290;28;20118;-53
2024/03/03 04:23:17;;;;;;;6.93;3.40;;;9.80;99.90;;;;;;4973726;28;20088;-53
2024/03/03 04:25:43;;;;;;;6.73;2.77;;;9.70;99.90;;;;;;4973355;28;20037;-56
2024/03/03 04:28:12;;;;;;;7.93;3.33;;;9.70;99.90;;;;;;4973251;28;20034;-53
2024/03/03 04:30:38;;;;;;;;;;;9.70;99.90;;;;;;4973805;28;20035;-53
2024/03/03 04:33:03;;;;;;;6.60;2.97;;;9.70;99.90;;;;;;4973135;28;19936;-52
2024/03/03 04:35:29;;;;;;;6.30;2.30;;;9.60;99.90;;;;;;4973108;28;20039;-53
2024/03/03 04:37:54;;;;;;;5.83;2.30;;;9.60;99.90;;;;;;4973335;28;20038;-56
2024/03/03 04:40:21;;;;;;;5.23;2.50;;;9.50;99.90;;;;;;4973081;28;20053;-56
2024/03/03 04:42:46;;;;;;;4.80;2.67;;;9.50;99.90;;;;;;4973069;28;20034;-56
2024/03/03 04:45:12;;;;;;;6.63;2.60;;;9.40;99.90;;;;;;4972870;28;20018;-55
2024/03/03 04:47:39;;;;;;;6.87;2.70;;;9.40;99.90;;;;;;4971969;28;20035;-54
2024/03/03 04:50:07;;;;;;;5.30;2.50;;;9.30;99.90;;;;;;4972893;28;20034;-55
2024/03/03 04:52:35;;;;;;;6.40;2.45;;;9.30;99.90;;;;;;4973168;28;20053;-56
2024/03/03 04:55:01;;;;;;;5.77;2.30;;;9.20;99.90;;;;;;4972962;28;20031;-52
2024/03/03 04:57:26;;;;;;;6.07;2.80;;;9.20;99.90;;;;;;4973047;28;20038;-56
2024/03/03 04:59:52;;;;;;;5.80;2.53;;;9.10;99.90;;;;;;4972818;28;20031;-56
2024/03/03 05:02:18;;;;;;;6.80;2.93;;;9.00;99.90;;;;;;4972660;28;20038;-54
2024/03/03 05:04:44;;;;;;;7.10;2.53;;;9.00;99.90;;;;;;4972867;28;20498;-56
2024/03/03 05:07:10;;;;;;;5.43;2.80;;;9.00;99.90;;;;;;4972864;28;20102;-54
2024/03/03 05:09:37;;;;;;;6.33;2.67;;;8.90;99.90;;;;;;4971507;28;20480;-55
2024/03/03 05:12:03;;;;;;;5.17;2.53;;;8.90;99.90;;;;;;4972540;28;20511;-54
2024/03/03 05:14:29;;;;;;;7.17;2.77;;;8.90;99.90;;;;;;4972724;28;20062;-55
2024/03/03 05:16:55;;;;;;;8.43;3.07;;;8.90;99.90;;;;;;4972728;28;20042;-54
2024/03/03 05:19:22;;;;;;;8.43;3.40;;;8.80;99.90;;;;;;4972584;28;20023;-53
2024/03/03 05:21:48;;;;;;;7.33;3.17;;;8.80;99.90;;;;;;4972637;28;20031;-55
2024/03/03 05:24:14;;;;;;;5.50;2.27;;;8.80;99.90;;;;;;4975107;28;20432;-54
2024/03/03 05:26:39;;;;;;;6.37;2.60;;;8.80;99.90;;;;;;4976641;28;20027;-55
2024/03/03 05:29:05;;;;;;;5.50;2.73;;;8.80;99.90;;;;;;4975227;28;20412;-55
2024/03/03 05:31:38;;;;;;;9.43;3.27;;;8.80;99.90;;;;;;4976242;28;20487;-56
2024/03/03 05:34:03;;;;;;;6.47;3.00;;;8.80;99.90;;;;;;4976559;28;20054;-56
2024/03/03 05:36:29;;;;;;;6.23;2.83;;;8.80;99.90;;;;;;4976373;28;20150;-54
2024/03/03 05:38:55;;;;;;;6.27;2.90;;;8.80;99.90;;;;;;4976367;28;20035;-55
2024/03/03 05:41:27;;;;;;;6.27;2.63;;;8.90;99.90;;;;;;4976037;28;20030;-55
2024/03/03 05:43:52;;;;;;;7.17;2.60;;;8.80;99.90;;;;;;4976326;28;20031;-54
2024/03/03 05:46:18;;;;;;;5.47;2.70;;;8.70;99.90;;;;;;4976043;28;20041;-55
2024/03/03 05:48:44;;;;;;;4.43;2.23;;;8.70;99.90;;;;;;4976167;28;20417;-55
2024/03/03 05:51:09;;;;;;;5.83;2.53;;;8.70;99.90;;;;;;4975897;28;20038;-55
2024/03/03 05:53:37;;;;;;;5.67;2.50;;;8.60;99.90;;;;;;4976144;28;20071;-55
2024/03/03 05:56:03;;;;;;;4.97;2.37;;;8.60;99.90;;;;;;4975930;28;20066;-51
2024/03/03 05:58:28;;;;;;;5.60;2.23;;;8.70;99.90;;;;;;4975905;28;20475;-53
2024/03/03 06:00:54;;;;;;;4.90;2.10;;;8.70;99.90;;;;;;4975743;28;20027;-54
2024/03/03 06:03:20;;;;;;;6.40;3.07;;;8.70;99.90;;;;;;4975928;28;20109;-52
2024/03/03 06:05:45;;;;;;;7.03;2.80;;;8.70;99.90;;;;;;4975812;28;20023;-54
2024/03/03 06:08:11;;;;;;;7.10;3.23;;;8.70;99.90;;;;;;4975826;28;20026;-54
2024/03/03 06:10:37;;;;;;;8.37;3.33;;;8.70;99.90;;;;;;4974552;28;20129;-52
2024/03/03 06:13:03;;;;;;;5.80;2.87;;;8.80;99.90;;;;;;4975612;28;20507;-54
2024/03/03 06:15:29;;;;;;;8.10;2.93;;;8.80;99.90;;;;;;4975694;28;20034;-54
2024/03/03 06:17:55;;;;;;;7.93;2.87;;;8.80;99.90;;;;;;4975586;28;20093;-54
2024/03/03 06:20:20;;;;;;;6.90;2.83;;;8.80;99.90;;;;;;4975523;28;20034;-56
2024/03/03 06:22:46;;;;;;;8.00;3.10;;;8.80;99.90;;;;;;4974232;28;20404;-55
2024/03/03 06:25:11;;;;;;;7.30;3.43;;;8.90;99.90;;;;;;4975467;28;20027;-51
2024/03/03 06:27:37;;;;;;;7.73;3.17;;;8.80;99.90;;;;;;4975526;28;20496;-54
2024/03/03 06:30:03;;;;;;;6.47;3.03;;;8.80;99.90;;;;;;4975278;28;20039;-55
2024/03/03 06:32:29;;;;;;;7.57;3.37;;;8.90;99.90;;;;;;4975244;28;20031;-55
2024/03/03 06:34:55;;;;;;;8.30;3.30;;;8.80;99.90;;;;;;4974036;28;20162;-53
2024/03/03 06:37:21;;;;;;;7.57;3.60;;;8.80;99.90;;;;;;4974070;28;20462;-56
2024/03/03 06:39:48;;;;;;;7.30;3.20;;;8.80;99.90;;;;;;4975159;28;20030;-56
2024/03/03 06:42:13;;;;;;;8.63;3.87;;;8.80;99.90;;;;;;4975059;28;20403;-54
2024/03/03 06:44:41;;;;;;;7.13;3.23;;;8.80;99.90;;;;;;4975059;28;20027;-54
2024/03/03 06:47:06;;;;;;;7.87;3.30;;;8.90;99.90;;;;;;4975175;28;20507;-56
2024/03/03 06:49:32;;;;;;;8.73;3.53;;;8.90;99.90;;;;;;4975019;28;20081;-55
2024/03/03 06:51:57;;;;;;;9.63;3.70;;;8.90;99.90;;;;;;4975127;28;20085;-55
2024/03/03 06:54:23;;;;;;;7.73;3.87;;;8.90;99.90;;;;;;4975337;28;20447;-55
2024/03/03 06:56:49;;;;;;;7.47;3.37;;;9.00;99.90;;;;;;4975089;28;20037;-53
2024/03/03 06:59:15;;;;;;;10.03;4.17;;;9.00;99.90;;;;;;4974850;28;20031;-52
2024/03/03 07:01:40;;;;;;;9.50;3.70;;;9.00;99.90;;;;;;4974682;28;20499;-53
2024/03/03 07:04:20;;;;;;;10.50;3.93;;;9.10;99.90;;;;;;4974886;28;20019;-52
2024/03/03 07:06:46;;;;;;;7.53;3.70;;;9.20;99.90;;;;;;4974829;28;20038;-52
2024/03/03 07:09:12;;;;;;;6.90;3.33;;;9.20;99.90;;;;;;4974826;28;20039;-50
2024/03/03 07:11:38;;;;;;;7.97;3.77;;;9.30;99.90;;;;;;4974482;28;20038;-51
2024/03/03 07:14:03;;;;;;;10.00;3.60;;;9.40;99.90;;;;;;4975014;28;20046;-51
2024/03/03 07:16:29;;;;;;;7.80;3.23;;;9.50;99.90;;;;;;4975047;28;20039;-53
2024/03/03 07:18:55;;;;;;;8.23;3.33;;;9.50;99.90;;;;;;4974947;28;20027;-51
2024/03/03 07:21:20;;;;;;;8.83;3.80;;;9.60;99.90;;;;;;4989815;28;20515;-50
2024/03/03 07:23:46;;;;;;;8.30;3.33;;;9.60;99.90;;;;;;4975140;28;20027;-51
2024/03/03 07:26:11;;;;;;;8.00;3.60;;;9.70;99.90;;;;;;4975358;28;20034;-52
2024/03/03 07:28:37;;;;;;;8.50;3.83;;;9.80;99.90;;;;;;4975744;28;20034;-52
2024/03/03 07:31:03;;;;;;;8.40;3.83;;;9.80;99.90;;;;;;4974477;28;20066;-52
2024/03/03 07:33:28;;;;;;;8.90;3.93;;;9.90;99.90;;;;;;4975675;28;20042;-51
2024/03/03 07:35:54;;;;;;;8.63;3.73;;;10.00;99.90;;;;;;4975971;28;20439;-53
2024/03/03 07:38:19;;;;;;;7.43;3.43;;;10.00;99.90;;;;;;4975861;28;20122;-54
2024/03/03 07:40:46;;;;;;;8.90;3.80;;;10.10;99.90;;;;;;4973772;28;20027;-53
2024/03/03 07:43:11;;;;;;;7.00;3.27;;;10.20;99.90;;;;;;4974057;28;20056;-55
2024/03/03 07:45:37;;;;;;;7.37;3.40;;;10.20;99.90;;;;;;4973567;28;20031;-55
2024/03/03 07:48:03;;;;;;;8.67;3.77;;;10.40;99.90;;;;;;4973872;28;20085;-51
2024/03/03 07:50:29;;;;;;;7.33;3.70;;;10.40;99.90;;;;;;4973931;28;20492;-55
2024/03/03 07:52:55;;;;;;;7.77;3.50;;;10.50;99.90;;;;;;4973732;28;20488;-54
2024/03/03 07:55:21;;;;;;;9.40;4.37;;;10.50;99.90;;;;;;4973671;28;20054;-55
2024/03/03 07:57:46;;;;;;;7.63;3.47;;;10.60;99.90;;;;;;4973815;28;20041;-53
2024/03/03 08:00:12;;;;;;;7.70;3.33;;;10.70;99.90;;;;;;4973695;28;20026;-52
2024/03/03 08:02:38;;;;;;;6.43;3.17;;;10.80;99.90;;;;;;4973770;28;20489;-55
2024/03/03 08:05:04;;;;;;;7.10;3.70;;;10.90;99.90;;;;;;4973808;28;20201;-56
2024/03/03 08:07:30;;;;;;;9.73;3.80;;;10.90;99.90;;;;;;4973644;28;20118;-59
2024/03/03 08:09:56;;;;;;;9.20;4.00;;;11.10;99.90;;;;;;4973411;28;20121;-54
2024/03/03 08:12:23;;;;;;;8.90;3.50;;;11.20;99.90;;;;;;4973414;28;20038;-54
2024/03/03 08:14:48;;;;;;;7.43;3.73;;;11.40;99.90;;;;;;4973450;28;20399;-56
2024/03/03 08:17:14;;;;;;;9.23;3.90;;;11.60;99.90;;;;;;4973481;28;20027;-55
2024/03/03 08:19:40;;;;;;;6.35;3.50;;;11.90;99.90;;;;;;4973315;28;20031;-53
2024/03/03 08:22:05;;;;;;;10.93;4.05;;;12.00;99.90;;;;;;4973153;28;20488;-52
2024/03/03 08:24:32;;;;;;;10.20;4.82;;;12.20;99.90;;;;;;4971870;28;20055;-55
2024/03/03 08:26:58;;;;;;;9.45;4.30;;;12.30;99.90;;;;;;4973347;28;20030;-53
2024/03/03 08:29:23;;;;;;;10.77;4.35;;;12.30;99.90;;;;;;4973174;28;20081;-50
2024/03/03 08:31:49;;;;;;;12.38;4.85;;;12.30;99.90;;;;;;4988113;28;20038;-54
2024/03/03 08:34:15;;;;;;;7.60;4.35;;;12.60;99.90;;;;;;4973094;28;20069;-55
2024/03/03 08:36:43;;;;;;;8.68;4.20;;;12.80;99.90;;;;;;4973131;28;20384;-54
2024/03/03 08:39:11;;;;;;;9.20;4.03;;;13.10;99.90;;;;;;4971657;28;20043;-55
2024/03/03 08:41:40;;;;;;;9.85;4.47;;;13.40;99.90;;;;;;4972896;28;20449;-54
2024/03/03 08:44:06;;;;;;;9.73;4.30;;;13.60;99.90;;;;;;4973152;28;20564;-56
2024/03/03 08:46:32;;;;;;;11.07;4.80;;;13.70;99.90;;;;;;4972915;28;20399;-55
2024/03/03 08:48:57;;;;;;;11.85;4.55;;;13.90;99.90;;;;;;4973069;28;20027;-56
2024/03/03 08:51:23;;;;;;;9.57;4.95;;;13.90;99.90;;;;;;4972772;28;20492;-54
2024/03/03 08:53:48;;;;;;;8.10;4.72;;;13.80;99.90;;;;;;4972988;28;20065;-56
2024/03/03 08:56:14;;;;;;;10.20;4.70;;;13.80;99.90;;;;;;4973223;28;20026;-57
2024/03/03 08:58:40;;;;;;;10.07;4.95;;;13.80;99.90;;;;;;4971961;28;20086;-54
2024/03/03 09:01:06;;;;;;;10.98;4.90;;;13.90;99.90;;;;;;4972815;28;20039;-53
2024/03/03 09:03:31;;;;;;;7.50;3.90;;;14.10;99.90;;;;;;4972776;28;20031;-53
2024/03/03 09:05:57;;;;;;;8.98;5.10;;;14.20;99.90;;;;;;4972790;28;20085;-54
2024/03/03 09:08:23;;;;;;;7.68;4.47;;;14.60;99.90;;;;;;4972760;28;20057;-55
2024/03/03 09:10:48;;;;;;;9.38;4.80;;;14.90;99.90;;;;;;4972676;28;20045;-52
2024/03/03 09:13:14;;;;;;;9.20;4.50;;;15.10;99.90;;;;;;4987770;28;20030;-53
2024/03/03 09:15:39;;;;;;;10.02;4.70;;;15.30;99.90;;;;;;4972741;28;20038;-54
2024/03/03 09:18:06;;;;;;;8.27;4.97;;;15.50;99.90;;;;;;4973099;28;20035;-55
2024/03/03 09:20:32;;;;;;;9.40;4.45;;;15.50;99.90;;;;;;4972721;28;20401;-54
2024/03/03 09:22:57;;;;;;;9.52;4.45;;;15.50;99.90;;;;;;4972589;28;20027;-52
2024/03/03 09:25:23;;;;;;;9.48;4.45;;;15.50;99.90;;;;;;4972650;28;20499;-56
2024/03/03 09:27:49;;;;;;;8.73;4.38;;;15.80;99.90;;;;;;4972825;28;20034;-54
2024/03/03 09:30:14;;;;;;;9.85;4.70;;;16.00;99.90;;;;;;4972653;28;20468;-55
2024/03/03 09:32:40;;;;;;;9.23;4.50;;;15.90;99.90;;;;;;4972435;28;20526;-55
2024/03/03 09:35:07;;;;;;;10.13;4.75;;;16.00;99.90;;;;;;4972553;28;20385;-55
2024/03/03 09:37:32;;;;;;;9.13;4.55;;;16.30;99.90;;;;;;4972531;28;20035;-54
2024/03/03 09:39:58;;;;;;;10.70;4.72;;;16.50;99.90;;;;;;4972449;28;20035;-54
2024/03/03 09:42:24;;;;;;;9.05;4.47;;;16.80;99.90;;;;;;4972576;28;20484;-55
2024/03/03 09:44:53;;;;;;;9.43;4.53;;;16.70;99.90;;;;;;4972511;28;20117;-55
2024/03/03 09:47:21;;;;;;;10.32;4.65;;;16.80;99.90;;;;;;4972563;28;20034;-55
2024/03/03 09:49:48;;;;;;;11.38;5.35;;;16.80;99.90;;;;;;4972396;28;20523;-56
2024/03/03 09:52:14;;;;;;;9.73;5.10;;;16.60;99.90;;;;;;4972307;28;20087;-57
2024/03/03 09:54:41;;;;;;;12.02;5.25;;;16.50;99.90;;;;;;4972403;28;20394;-52
2024/03/03 09:57:13;;;;;;;10.20;4.47;;;17.10;99.90;;;;;;4972476;28;20038;-55
2024/03/03 09:59:40;;;;;;;9.25;5.18;;;17.70;99.90;;;;;;4972261;28;20035;-56
2024/03/03 10:02:16;;;;;;;12.07;4.90;;;17.90;99.70;;;;;;4972034;28;20498;-55
2024/03/03 10:04:48;;;;;;;9.15;4.55;;;18.30;99.20;;;;;;4972377;28;20121;-53
2024/03/03 10:07:21;;;;;;;9.75;5.57;;;18.50;98.50;;;;;;4972419;28;20038;-55
2024/03/03 10:09:54;;;;;;;8.98;4.72;;;19.30;98.50;;;;;;4973801;28;20034;-56
2024/03/03 10:12:22;;;;;;;9.18;4.75;;;20.40;96.30;;;;;;4975694;28;20038;-56
2024/03/03 10:14:48;;;;;;;9.52;4.93;;;21.20;95.40;;;;;;4975681;28;20034;-54
2024/03/03 10:17:14;;;;;;;8.88;4.80;;;21.70;94.40;;;;;;4975731;28;20082;-56
2024/03/03 10:19:40;;;;;;;8.02;4.75;;;22.00;94.00;;;;;;4975371;28;20031;-54
2024/03/03 10:22:12;;;;;;;8.70;4.85;;;22.50;92.40;;;;;;4975459;28;20038;-55
2024/03/03 10:24:38;;;;;;;6.78;4.80;;;22.80;91.70;;;;;;4975551;28;20039;-56
2024/03/03 10:27:07;;;;;;;7.53;4.65;;;23.30;90.90;;;;;;4975958;28;20081;-54
2024/03/03 10:29:32;;;;;;;8.05;4.68;;;23.90;90.20;;;;;;4975247;28;20035;-55
2024/03/03 10:31:58;;;;;;;7.70;4.85;;;24.20;88.60;;;;;;4975733;28;20166;-54
2024/03/03 10:34:24;;;;;;;9.23;5.28;;;24.70;85.20;;;;;;4975306;28;20042;-55
2024/03/03 10:37:00;;;;;;;8.27;4.90;;;25.00;82.40;;;;;;4990312;28;20031;-55
2024/03/03 10:39:26;;;;;;;9.25;5.07;;;24.60;81.80;;;;;;4975052;28;20385;-54
2024/03/03 10:41:51;;;;;;;10.90;5.50;;;24.50;83.00;;;;;;4975027;28;20030;-55
2024/03/03 10:44:17;;;;;;;7.75;5.28;;;24.90;81.80;;;;;;4975247;28;20022;-56
2024/03/03 10:46:45;;;;;;;9.15;4.95;;;25.10;79.90;;;;;;4975155;28;20373;-55
2024/03/03 10:49:14;;;;;;;8.40;4.72;;;24.70;80.00;;;;;;4975110;28;20559;-55
2024/03/03 10:51:39;;;;;;;7.97;4.78;;;24.20;80.90;;;;;;4974869;28;20049;-55
2024/03/03 10:54:05;;;;;;;7.72;4.90;;;24.00;79.80;;;;;;4973898;28;20035;-55
2024/03/03 10:56:33;;;;;;;9.05;5.10;;;24.00;80.20;;;;;;4974908;28;20624;-55
2024/03/03 10:59:01;;;;;;;10.20;4.97;;;24.00;79.10;;;;;;4973581;28;20077;-54
2024/03/03 11:01:27;;;;;;;7.15;4.88;;;23.70;79.60;;;;;;4974809;28;20388;-55
2024/03/03 11:03:55;;;;;;;9.10;4.90;;;23.60;80.60;;;;;;4974777;28;20081;-56
2024/03/03 11:06:22;;;;;;;9.57;5.30;;;23.60;80.40;;;;;;4974832;28;20027;-57
2024/03/03 11:08:52;;;;;;;8.35;5.05;;;23.80;79.10;;;;;;4989834;28;20073;-56
2024/03/03 11:11:24;;;;;;;7.53;4.30;;;23.70;80.70;;;;;;4974587;28;20069;-56
2024/03/03 11:14:02;;;;;;;9.20;4.80;;;24.10;78.70;;;;;;4973735;28;20336;-57
2024/03/03 11:16:29;;;;;;;7.68;4.63;;;24.30;77.40;;;;;;4974816;28;20027;-56
2024/03/03 11:19:19;;;;;;;7.82;4.55;;;24.50;77.70;;;;;;4975715;28;20041;-56
2024/03/03 11:21:50;;;;;;;6.95;4.45;;;24.40;76.00;;;;;;4973962;28;20023;-56
2024/03/03 11:24:27;;;;;;;6.95;3.95;;;24.50;74.70;;;;;;4974922;28;20019;-55
2024/03/03 11:27:05;;;;;;;7.20;4.47;;;23.90;77.30;;;;;;4974649;28;20026;-56
2024/03/03 11:29:32;;;;;;;7.55;3.90;;;23.50;75.70;;;;;;4974512;28;20050;-55
2024/03/03 11:31:58;;;;;;;7.65;4.03;;;23.20;76.50;;;;;;4974376;28;20303;-55
2024/03/03 11:34:25;;;;;;;7.72;4.65;;;23.00;76.50;;;;;;4974448;28;20030;-55
2024/03/03 11:36:51;;;;;;;7.20;3.92;;;22.80;77.80;;;;;;4974616;28;20034;-54
2024/03/03 11:39:18;;;;;;;7.07;4.45;;;22.50;78.50;;;;;;4973011;28;20065;-56
2024/03/03 11:41:44;;;;;;;6.72;4.20;;;22.70;78.90;;;;;;4974631;28;20042;-54
2024/03/03 11:44:35;;;;;;;8.25;4.32;;;22.70;78.80;;;;;;4974325;28;20027;-56
2024/03/03 11:47:04;;;;;;;9.68;4.97;;;22.90;77.30;;;;;;4974137;28;20101;-56
2024/03/03 11:49:31;;;;;;;9.77;5.18;;;23.50;77.40;;;;;;4974075;28;20121;-56
2024/03/03 11:51:57;;;;;;;10.10;4.68;;;23.50;76.50;;;;;;4974121;28;20544;-55
2024/03/03 11:54:31;;;;;;;7.82;4.38;;;23.70;77.00;;;;;;4974245;28;20046;-56
2024/03/03 11:57:01;;;;;;;6.88;3.80;;;23.70;74.50;;;;;;4973966;28;20061;-55
2024/03/03 11:59:37;;;;;;;7.10;4.03;;;23.20;74.90;;;;;;4973920;28;20039;-55
2024/03/03 12:02:03;;;;;;;7.32;3.58;;;22.80;75.80;;;;;;4973878;28;20126;-54
2024/03/03 12:04:29;;;;;;;5.75;3.00;;;23.40;75.20;;;;;;4973892;28;20030;-56
2024/03/03 12:06:55;;;;;;;6.55;3.45;;;23.50;73.20;;;;;;4973990;28;20034;-55
2024/03/03 12:09:22;;;;;;;5.70;3.22;;;24.20;72.90;;;;;;4973771;28;20045;-56
2024/03/03 12:11:49;;;;;;;6.28;3.58;;;24.90;71.90;;;;;;4972257;28;20034;-57
2024/03/03 12:14:15;;;;;;;6.57;3.90;;;25.90;71.70;;;;;;4973571;28;20030;-54
2024/03/03 12:16:40;;;;;;;6.38;3.80;;;26.50;68.50;;;;;;4973583;28;20043;-56
2024/03/03 12:19:08;;;;;;;7.25;3.38;;;27.20;67.30;;;;;;4973536;28;20498;-55
2024/03/03 12:21:34;;;;;;;5.85;3.03;;;27.90;65.50;;;;;;4973395;28;20027;-56
2024/03/03 12:24:00;;;;;;;6.53;4.07;;;27.90;63.50;;;;;;4973866;28;20058;-54
2024/03/03 12:26:26;;;;;;;4.43;3.08;;;27.10;62.80;;;;;;4973483;28;20038;-55
2024/03/03 12:28:52;;;;;;;5.93;3.58;;;26.20;64.70;;;;;;4973390;28;20034;-56
2024/03/03 12:31:21;;;;;;;6.78;3.28;;;25.20;65.40;;;;;;4973235;28;20707;-55
2024/03/03 12:33:46;;;;;;;8.35;3.72;;;24.50;68.20;;;;;;4973271;28;20030;-54
2024/03/03 12:36:12;;;;;;;7.53;3.70;;;24.60;67.50;;;;;;4973365;28;20546;-56
2024/03/03 12:38:38;;;;;;;7.10;3.40;;;25.10;67.80;;;;;;4973330;28;20037;-55
2024/03/03 12:41:07;;;;;;;6.32;3.58;;;25.90;65.40;;;;;;4973222;28;20031;-56
2024/03/03 12:43:33;;;;;;;5.45;3.40;;;26.80;63.80;;;;;;4973256;28;20026;-54
2024/03/03 12:46:00;;;;;;;6.95;3.47;;;27.00;63.00;;;;;;4987964;28;20035;-56